createdAt,value
2019-03-05T00:04:26.237Z,4.80
2019-03-05T00:09:18.093Z,7.20
2019-03-05T00:14:12.184Z,4.00
2019-03-05T00:19:03.876Z,10.90
2019-03-05T00:23:55.578Z,8.70
2019-03-05T00:28:47.475Z,6.80
2019-03-05T00:33:39.602Z,5.20
2019-03-05T00:38:31.639Z,3.70
2019-03-05T00:43:23.629Z,8.40
2019-03-05T00:48:15.688Z,10.80
2019-03-05T00:53:07.587Z,8.50
2019-03-05T00:57:59.620Z,6.70
2019-03-05T01:02:53.581Z,7.10
2019-03-05T01:07:45.289Z,4.60
2019-03-05T01:12:37.460Z,9.70
2019-03-05T01:17:29.438Z,2.00
2019-03-05T01:22:21.218Z,8.30
2019-03-05T01:27:13.241Z,5.60
2019-03-05T01:32:05.157Z,6.20
2019-03-05T01:36:57.173Z,2.40
2019-03-05T01:41:49.238Z,4.10
2019-03-05T01:46:40.926Z,6.70
2019-03-05T01:51:32.776Z,4.10
2019-03-05T01:56:24.444Z,4.50
2019-03-05T02:01:16.419Z,2.00
2019-03-05T02:06:08.209Z,3.70
2019-03-05T02:11:00.336Z,4.30
2019-03-05T02:15:52.089Z,3.10
2019-03-05T02:20:43.804Z,4.40
2019-03-05T02:25:35.846Z,1.60
2019-03-05T02:30:27.670Z,2.20
2019-03-05T02:35:19.672Z,1.30
2019-03-05T02:40:11.529Z,3.00
2019-03-05T02:45:03.342Z,5.50
2019-03-05T02:49:55.137Z,5.90
2019-03-05T02:54:47.047Z,9.50
2019-03-05T02:59:38.943Z,4.20
2019-03-05T03:04:30.099Z,2.70
2019-03-05T03:09:22.273Z,2.50
2019-03-05T03:14:14.313Z,3.50
2019-03-05T03:19:06.335Z,4.30
2019-03-05T03:23:58.326Z,3.80
2019-03-05T03:28:49.977Z,8.10
2019-03-05T03:33:42.061Z,6.00
2019-03-05T03:38:34.222Z,1.20
2019-03-05T03:43:26.255Z,1.60
2019-03-05T03:48:18.027Z,3.00
2019-03-05T03:53:09.746Z,2.20
2019-03-05T03:58:01.570Z,2.80
2019-03-05T04:02:53.642Z,1.60
2019-03-05T04:07:47.394Z,2.10
2019-03-05T04:12:38.883Z,3.70
2019-03-05T04:17:30.670Z,6.30
2019-03-05T04:22:22.528Z,3.60
2019-03-05T04:27:14.572Z,1.00
2019-03-05T04:32:06.563Z,6.00
2019-03-05T04:36:58.468Z,3.60
2019-03-05T04:41:50.560Z,2.90
2019-03-05T04:46:42.717Z,2.80
2019-03-05T04:51:34.606Z,2.60
2019-03-05T04:56:27.232Z,3.30
2019-03-05T05:01:19.085Z,5.90
2019-03-05T05:06:10.789Z,3.50
2019-03-05T05:11:02.823Z,1.30
2019-03-05T05:15:54.680Z,1.10
2019-03-05T05:20:46.633Z,2.80
2019-03-05T05:25:38.684Z,5.00
2019-03-05T05:30:30.741Z,6.30
2019-03-05T05:35:22.716Z,2.70
2019-03-05T05:40:14.708Z,2.30
2019-03-05T05:45:06.703Z,2.40
2019-03-05T05:49:58.666Z,0.80
2019-03-05T05:54:50.693Z,2.80
2019-03-05T05:59:43.708Z,1.60
2019-03-05T06:04:35.959Z,1.10
2019-03-05T06:09:27.949Z,2.10
2019-03-05T06:14:19.705Z,6.50
2019-03-05T06:19:11.611Z,4.20
2019-03-05T06:24:03.356Z,1.50
2019-03-05T06:28:55.133Z,0.50
2019-03-05T06:33:47.026Z,2.40
2019-03-05T06:38:39.002Z,4.00
2019-03-05T06:43:30.971Z,2.10
2019-03-05T06:48:22.916Z,2.00
2019-03-05T06:53:14.938Z,3.40
2019-03-05T06:58:06.782Z,0.70
2019-03-05T07:02:58.835Z,3.50
2019-03-05T07:07:50.774Z,1.20
2019-03-05T07:12:44.699Z,4.20
2019-03-05T07:17:36.068Z,1.50
2019-03-05T07:22:28.085Z,1.70
2019-03-05T07:27:21.813Z,1.50
2019-03-05T07:32:13.332Z,1.80
2019-03-05T07:37:04.938Z,0.70
2019-03-05T07:41:56.794Z,1.50
2019-03-05T07:46:48.561Z,0.90
2019-03-05T07:51:41.285Z,1.40
2019-03-05T07:56:33.364Z,3.00
2019-03-05T08:01:25.288Z,1.90
2019-03-05T08:06:17.333Z,2.30
2019-03-05T08:11:09.235Z,4.10
2019-03-05T08:16:02.610Z,6.20
2019-03-05T08:20:53.937Z,4.40
2019-03-05T08:25:45.805Z,3.90
2019-03-05T08:30:37.876Z,3.20
2019-03-05T08:35:30.060Z,7.00
2019-03-05T08:40:22.301Z,4.20
2019-03-05T08:45:14.451Z,5.20
2019-03-05T08:50:06.284Z,6.00
2019-03-05T08:54:58.100Z,2.90
2019-03-05T08:59:50.174Z,3.00
2019-03-05T09:04:42.267Z,8.00
2019-03-05T09:09:35.161Z,3.60
2019-03-05T09:14:27.514Z,2.40
2019-03-05T09:19:19.604Z,5.90
2019-03-05T09:24:11.537Z,3.80
2019-03-05T09:29:03.469Z,2.70
2019-03-05T09:33:55.544Z,2.30
2019-03-05T09:38:47.825Z,6.80
2019-03-05T09:43:39.875Z,5.20
2019-03-05T09:48:31.925Z,4.70
2019-03-05T09:53:23.760Z,2.60
2019-03-05T09:58:15.918Z,4.60
2019-03-05T10:03:08.346Z,3.00
2019-03-05T10:08:00.352Z,1.70
2019-03-05T10:12:52.588Z,2.60
2019-03-05T10:17:46.838Z,4.30
2019-03-05T10:22:40.674Z,6.20
2019-03-05T10:27:32.837Z,4.00
2019-03-05T10:32:24.841Z,2.60
2019-03-05T10:37:18.828Z,2.80
2019-03-05T10:42:10.375Z,3.10
2019-03-05T10:47:02.581Z,8.60
2019-03-05T10:51:54.489Z,2.40
2019-03-05T10:56:46.362Z,4.80
2019-03-05T11:01:38.168Z,5.30
2019-03-05T11:06:32.049Z,3.10
2019-03-05T11:11:23.597Z,2.20
2019-03-05T11:16:15.633Z,2.40
2019-03-05T11:21:08.032Z,1.50
2019-03-05T11:26:00.601Z,3.70
2019-03-05T11:30:52.725Z,5.60
2019-03-05T11:35:44.701Z,1.80
2019-03-05T11:40:36.752Z,1.20
2019-03-05T11:45:29.484Z,4.70
2019-03-05T11:50:21.649Z,5.50
2019-03-05T11:55:13.468Z,3.80
2019-03-05T12:00:07.235Z,2.90
2019-03-05T12:05:00.582Z,4.10
2019-03-05T12:09:52.069Z,1.90
2019-03-05T12:14:43.909Z,3.10
2019-03-05T12:19:35.535Z,3.20
2019-03-05T12:24:28.480Z,1.90
2019-03-05T12:29:20.613Z,5.30
2019-03-05T12:34:12.695Z,1.40
2019-03-05T12:39:05.234Z,1.40
2019-03-05T12:43:57.327Z,5.20
2019-03-05T12:48:49.171Z,2.70
2019-03-05T12:53:40.995Z,2.20
2019-03-05T12:58:32.983Z,0.80
2019-03-05T13:03:25.956Z,1.40
2019-03-05T13:08:18.777Z,0.70
2019-03-05T13:13:13.877Z,0.60
2019-03-05T13:18:06.428Z,0.90
2019-03-05T13:22:58.491Z,2.00
2019-03-05T13:27:51.118Z,1.20
2019-03-05T13:32:43.271Z,1.10
2019-03-05T13:37:35.484Z,0.80
2019-03-05T13:42:28.986Z,2.50
2019-03-05T13:47:25.811Z,1.60
2019-03-05T13:52:17.471Z,1.10
2019-03-05T13:57:09.454Z,1.60
2019-03-05T14:02:00.915Z,2.00
2019-03-05T14:06:52.868Z,5.00
2019-03-05T14:11:45.766Z,1.50
2019-03-05T14:16:37.615Z,1.30
2019-03-05T14:21:29.934Z,2.60
2019-03-05T14:26:22.516Z,5.30
2019-03-05T14:31:14.405Z,2.40
2019-03-05T14:36:06.386Z,2.40
2019-03-05T14:40:58.322Z,1.00
2019-03-05T14:45:51.079Z,1.40
2019-03-05T14:50:43.033Z,1.20
2019-03-05T14:55:35.369Z,1.40
2019-03-05T15:00:27.312Z,0.80
2019-03-05T15:05:19.159Z,1.60
2019-03-05T15:10:11.935Z,1.30
2019-03-05T15:15:04.284Z,1.30
2019-03-05T15:19:56.274Z,1.30
2019-03-05T15:24:48.350Z,1.50
2019-03-05T15:29:40.572Z,2.20
2019-03-05T15:34:32.617Z,2.10
2019-03-05T15:39:24.601Z,1.80
2019-03-05T15:44:17.743Z,3.70
2019-03-05T15:49:09.811Z,1.70
2019-03-05T15:54:01.905Z,0.90
2019-03-05T15:58:53.897Z,1.70
2019-03-05T16:03:45.998Z,3.10
2019-03-05T16:08:37.943Z,1.80
2019-03-05T16:13:32.542Z,2.50
2019-03-05T16:18:24.292Z,1.10
2019-03-05T16:23:16.189Z,3.60
2019-03-05T16:28:08.683Z,4.00
2019-03-05T16:33:01.216Z,1.60
2019-03-05T16:37:53.428Z,1.60
2019-03-05T16:42:45.660Z,3.80
2019-03-05T16:47:37.680Z,1.50
2019-03-05T16:52:29.616Z,3.50
2019-03-05T16:57:23.526Z,5.60
2019-03-05T17:02:15.123Z,1.80
2019-03-05T17:07:07.178Z,2.00
2019-03-05T17:12:01.388Z,1.10
2019-03-05T17:16:52.887Z,5.00
2019-03-05T17:21:44.719Z,2.10
2019-03-05T17:26:37.425Z,8.40
2019-03-05T17:31:29.190Z,3.20
2019-03-05T17:36:21.044Z,3.30
2019-03-05T17:41:12.825Z,5.70
2019-03-05T17:46:05.229Z,2.60
2019-03-05T17:50:57.060Z,4.10
2019-03-05T17:55:48.793Z,9.20
2019-03-05T18:00:40.894Z,1.90
2019-03-05T18:05:32.788Z,3.10
2019-03-05T18:10:26.527Z,2.50
2019-03-05T18:15:17.798Z,1.90
2019-03-05T18:20:10.511Z,1.40
2019-03-05T18:25:02.386Z,7.20
2019-03-05T18:29:54.177Z,2.30
2019-03-05T18:34:45.890Z,2.30
2019-03-05T18:39:39.824Z,1.00
2019-03-05T18:44:31.127Z,2.00
2019-03-05T18:49:23.503Z,1.00
2019-03-05T18:54:17.593Z,2.50
2019-03-05T18:59:08.986Z,3.10
2019-03-05T19:04:00.756Z,4.90
2019-03-05T19:08:52.705Z,1.90
2019-03-05T19:13:42.922Z,4.00
2019-03-05T19:18:34.511Z,1.70
2019-03-05T19:23:26.000Z,4.80
2019-03-05T19:28:18.504Z,1.90
2019-03-05T19:33:10.356Z,2.80
2019-03-05T19:38:02.047Z,2.30
2019-03-05T19:42:54.429Z,5.20
2019-03-05T19:47:46.119Z,2.10
2019-03-05T19:52:37.651Z,4.30
2019-03-05T19:57:29.628Z,3.00
2019-03-05T20:02:21.558Z,7.00
2019-03-05T20:07:13.407Z,2.30
2019-03-05T20:12:05.770Z,3.00
2019-03-05T20:16:57.567Z,2.80
2019-03-05T20:21:49.195Z,4.90
2019-03-05T20:26:41.101Z,5.40
2019-03-05T20:31:33.470Z,4.20
2019-03-05T20:36:25.429Z,3.70
2019-03-05T20:41:17.147Z,7.10
2019-03-05T20:46:11.108Z,8.20
2019-03-05T20:51:02.312Z,7.40
2019-03-05T20:55:54.350Z,4.20
2019-03-05T21:00:47.198Z,9.00
2019-03-05T21:05:39.449Z,6.90
2019-03-05T21:10:31.866Z,24.10
2019-03-05T21:15:24.000Z,17.60
2019-03-05T21:20:15.756Z,16.00
2019-03-05T21:25:07.764Z,10.80
2019-03-05T21:29:59.546Z,12.80
2019-03-05T21:34:50.735Z,17.90
2019-03-05T21:39:42.471Z,23.70
2019-03-05T21:44:34.434Z,23.80
2019-03-05T21:49:26.357Z,24.70
2019-03-05T21:54:19.326Z,32.10
2019-03-05T21:59:11.883Z,15.60
2019-03-05T22:04:03.630Z,6.10
2019-03-05T22:08:55.712Z,3.50
2019-03-05T22:13:48.589Z,4.40
2019-03-05T22:18:40.154Z,3.40
2019-03-05T22:23:31.971Z,4.10
2019-03-05T22:28:23.660Z,7.90
2019-03-05T22:33:16.479Z,5.70
2019-03-05T22:38:08.293Z,3.10
2019-03-05T22:43:00.065Z,4.60
2019-03-05T22:47:51.943Z,4.70
2019-03-05T22:52:43.985Z,7.80
2019-03-05T22:57:37.072Z,4.80
2019-03-05T23:02:28.745Z,2.70
2019-03-05T23:07:21.209Z,4.10
2019-03-05T23:12:13.192Z,6.20
2019-03-05T23:17:05.071Z,2.80
2019-03-05T23:21:56.568Z,8.60
2019-03-05T23:26:48.022Z,9.40
2019-03-05T23:31:42.189Z,5.70
2019-03-05T23:36:33.306Z,7.40
2019-03-05T23:41:25.912Z,5.80
2019-03-05T23:46:17.778Z,6.50
2019-03-05T23:51:09.441Z,6.80
2019-03-05T23:56:02.022Z,2.30
